Welkom op de website van Weerstation Hoek van Holland.

Onweer radar Meer informatie blitzortung!


Regen radar Meer informatie rain snow radar



METAR rapporten vliegvelden

   
EHRD - Rotterdam International Airport, NL
Afstand tot: Oost 31 km
Gewijzigd: 12-12-2019 15:55
Grotendeels bewolkt  
Grotendeels bewolkt  
   Wind: Zuiden 27.8 km/h
Wind: Zuiden 27.8 km/h
Temperatuur: 6°C
Voelt als: 2°C
Dauwpunt: 2°C
Vochtigheid: 76%
Barometer: 993 hPa
Bewolking: Mostly Cloudy
Zicht: meer dan 10 km
Bewolking: Licht bewolkt 2100 ft,
Gedeeltelijk bewolkt 2500 ft,
Grotendeels bewolkt 4100 ft
EHRD 121455Z AUTO 17015KT 120V200 9999 FEW021 SCT025 BKN041 06/02 Q0993 NOSIG
EHAM - Amsterdam Schiphol, NL
Afstand tot: Noord 17 km
Gewijzigd: 12-12-2019 15:55
Licht bewolkt  
Licht bewolkt  
   Wind: ZZO 29.6 km/h
Wind: ZZO 29.6 km/h
Temperatuur: 5°C
Voelt als: 0°C
Dauwpunt: 2°C
Vochtigheid: 81%
Barometer: 993 hPa
Bewolking: Few Clouds
Zicht: meer dan 10 km
Bewolking: Licht bewolkt 1300 ft
EHAM 121455Z 16016KT 130V190 9999 FEW013 05/02 Q0993 NOSIG
EBAW - Antwerpen/Deurne, B
Afstand tot: Zuid 138 km
Gewijzigd: 12-12-2019 15:50
Grotendeels bewolkt  
Grotendeels bewolkt  
   Wind: Zuiden 25.9 km/h
Wind: Zuiden 25.9 km/h
Temperatuur: 5°C
Voelt als: 1°C
Dauwpunt: 1°C
Vochtigheid: 76%
Barometer: 994 hPa
Bewolking: Mostly Cloudy
Zicht: meer dan 10 km
Bewolking: Grotendeels bewolkt 2300 ft
EBAW 121450Z 17014KT 9999 BKN023 05/01 Q0994 TEMPO 17015G25KT
EHEH - Eindhoven, NL
Afstand tot: OZO 140 km
Gewijzigd: 12-12-2019 16:04
Grotendeels bewolkt  
Grotendeels bewolkt  
   Wind: Zuiden 25.9 km/h
Wind: Zuiden 25.9 km/h
Temperatuur: 5°C
Voelt als: 1°C
Dauwpunt: 1°C
Vochtigheid: 76%
Barometer: 995 hPa
Bewolking: Mostly Cloudy
Zicht: meer dan 10 km
Bewolking: Licht bewolkt 2100 ft,
Gedeeltelijk bewolkt 2500 ft,
Grotendeels bewolkt 6600 ft
EHEH 121504Z AUTO 18014KT 140V210 9999 FEW021 SCT025 BKN066 05/01 Q0995 BLU 170130KT 9999 SCT023 SCT110
  

Script ontwikkeld door  Saratoga-weather.org Aangepast voor de template door  Weerstation Leuven

Apparatuur in gebruik:

Weerstation
Davis VP2

Weerprogramma
Meteobridge

Weercomputer
meteobridge met meteostick

Webleverancier
Strato

Davis VP2

Meteobridge

meteobridge met meteostick

Strato